createdAt,value
2023-11-27T00:00:49.320Z,7.40
2023-11-27T00:03:17.549Z,7.40
2023-11-27T00:05:48.266Z,7.40
2023-11-27T00:08:20.844Z,7.30
2023-11-27T00:10:51.096Z,7.30
2023-11-27T00:13:19.724Z,7.30
2023-11-27T00:16:28.568Z,7.30
2023-11-27T00:18:59.308Z,7.30
2023-11-27T00:21:30.289Z,7.30
2023-11-27T00:24:05.367Z,7.30
2023-11-27T00:29:16.916Z,7.30
2023-11-27T00:31:45.181Z,7.30
2023-11-27T00:34:16.140Z,7.30
2023-11-27T00:37:08.466Z,7.30
2023-11-27T00:39:43.610Z,7.20
2023-11-27T00:42:12.356Z,7.30
2023-11-27T00:44:44.381Z,7.30
2023-11-27T00:47:15.934Z,7.20
2023-11-27T00:49:44.399Z,7.20
2023-11-27T00:52:44.105Z,7.20
2023-11-27T00:55:15.591Z,7.20
2023-11-27T00:57:44.778Z,7.20
2023-11-27T01:00:14.615Z,7.30
2023-11-27T01:02:43.197Z,7.30
2023-11-27T01:05:32.915Z,7.20
2023-11-27T01:08:01.172Z,7.20
2023-11-27T01:10:31.273Z,7.20
2023-11-27T01:13:00.050Z,7.20
2023-11-27T01:15:29.171Z,7.20
2023-11-27T01:17:59.645Z,7.30
2023-11-27T01:20:30.284Z,7.20
2023-11-27T01:23:00.459Z,7.20
2023-11-27T01:25:30.715Z,7.20
2023-11-27T01:28:00.211Z,7.20
2023-11-27T01:30:50.463Z,7.20
2023-11-27T01:33:20.131Z,7.20
2023-11-27T01:35:51.058Z,7.20
2023-11-27T01:38:22.299Z,7.20
2023-11-27T01:41:01.243Z,7.20
2023-11-27T01:43:37.488Z,7.20
2023-11-27T01:46:27.106Z,7.20
2023-11-27T01:48:57.190Z,7.20
2023-11-27T01:51:27.018Z,7.10
2023-11-27T01:53:58.256Z,7.20
2023-11-27T01:56:30.417Z,7.20
2023-11-27T01:59:01.425Z,7.10
2023-11-27T02:01:32.771Z,7.20
2023-11-27T02:04:04.086Z,7.20
2023-11-27T02:06:33.048Z,7.30
2023-11-27T02:09:22.321Z,7.20
2023-11-27T02:11:52.761Z,7.20
2023-11-27T02:14:22.284Z,7.30
2023-11-27T02:16:51.064Z,7.30
2023-11-27T02:19:20.738Z,7.20
2023-11-27T02:21:49.641Z,7.20
2023-11-27T02:24:19.432Z,7.20
2023-11-27T02:26:49.380Z,7.20
2023-11-27T02:29:38.817Z,7.20
2023-11-27T02:32:08.218Z,7.20
2023-11-27T02:34:36.478Z,7.10
2023-11-27T02:37:05.814Z,7.10
2023-11-27T02:39:43.941Z,7.10
2023-11-27T02:42:12.758Z,7.10
2023-11-27T02:44:44.197Z,7.10
2023-11-27T02:47:12.547Z,7.10
2023-11-27T02:49:44.050Z,7.10
2023-11-27T02:52:17.311Z,7.10
2023-11-27T02:54:46.964Z,7.10
2023-11-27T02:57:17.608Z,7.10
2023-11-27T02:59:47.449Z,7.00
2023-11-27T03:02:16.300Z,7.00
2023-11-27T03:04:45.855Z,7.00
2023-11-27T03:07:14.355Z,7.10
2023-11-27T03:09:43.770Z,7.10
2023-11-27T03:12:15.311Z,7.10
2023-11-27T03:14:43.689Z,7.00
2023-11-27T03:17:12.029Z,7.00
2023-11-27T03:19:48.020Z,7.10
2023-11-27T03:22:37.423Z,7.00
2023-11-27T03:25:07.981Z,7.00
2023-11-27T03:27:39.982Z,7.00
2023-11-27T03:30:12.747Z,7.00
2023-11-27T03:33:01.338Z,6.90
2023-11-27T03:35:50.841Z,6.90
2023-11-27T03:38:20.477Z,6.80
2023-11-27T03:40:48.921Z,6.80
2023-11-27T03:43:20.053Z,6.80
2023-11-27T03:45:48.815Z,6.80
2023-11-27T03:48:19.509Z,6.80
2023-11-27T03:50:47.641Z,6.90
2023-11-27T03:53:36.968Z,6.70
2023-11-27T03:56:06.926Z,6.70
2023-11-27T03:58:39.516Z,6.80
2023-11-27T04:01:09.569Z,6.80
2023-11-27T04:03:59.426Z,6.70
2023-11-27T04:06:33.300Z,6.70
2023-11-27T04:09:05.140Z,6.70
2023-11-27T04:11:33.308Z,6.80
2023-11-27T04:14:03.056Z,6.70
2023-11-27T04:16:31.730Z,6.70
2023-11-27T04:19:04.765Z,6.70
2023-11-27T04:21:34.423Z,6.70
2023-11-27T04:24:03.188Z,6.60
2023-11-27T04:26:35.691Z,6.60
2023-11-27T04:29:06.911Z,6.60
2023-11-27T04:31:37.265Z,6.60
2023-11-27T04:34:06.449Z,6.60
2023-11-27T04:36:34.989Z,6.60
2023-11-27T04:39:28.745Z,6.60
2023-11-27T04:41:57.016Z,6.50
2023-11-27T04:44:29.470Z,6.50
2023-11-27T04:46:58.144Z,6.60
2023-11-27T04:49:30.353Z,6.50
2023-11-27T04:51:58.768Z,6.60
2023-11-27T04:54:29.255Z,6.50
2023-11-27T04:57:00.149Z,6.60
2023-11-27T04:59:31.304Z,6.60
2023-11-27T05:01:59.831Z,6.60
2023-11-27T05:04:29.514Z,6.60
2023-11-27T05:07:01.266Z,6.60
2023-11-27T05:09:32.426Z,6.70
2023-11-27T05:12:05.494Z,6.70
2023-11-27T05:14:36.952Z,6.70
2023-11-27T05:17:10.332Z,6.60
2023-11-27T05:19:38.446Z,6.70
2023-11-27T05:22:09.499Z,6.70
2023-11-27T05:24:37.672Z,6.70
2023-11-27T05:27:05.821Z,6.70
2023-11-27T05:29:37.290Z,6.70
2023-11-27T05:32:10.224Z,6.80
2023-11-27T05:34:41.307Z,6.70
2023-11-27T05:37:10.295Z,6.70
2023-11-27T05:39:38.727Z,6.80
2023-11-27T05:42:07.880Z,6.70
2023-11-27T05:44:38.037Z,6.80
2023-11-27T05:47:06.833Z,6.80
2023-11-27T05:49:34.675Z,6.80
2023-11-27T05:52:04.462Z,6.80
2023-11-27T05:54:33.002Z,6.90
2023-11-27T05:57:03.537Z,6.90
2023-11-27T05:59:33.111Z,6.90
2023-11-27T06:02:02.604Z,6.90
2023-11-27T06:04:30.771Z,6.90
2023-11-27T06:06:59.445Z,6.90
2023-11-27T06:09:27.597Z,7.00
2023-11-27T06:11:55.687Z,7.00
2023-11-27T06:14:23.765Z,7.00
2023-11-27T06:16:54.011Z,7.00
2023-11-27T06:19:23.451Z,7.00
2023-11-27T06:21:51.607Z,7.00
2023-11-27T06:24:19.667Z,7.10
2023-11-27T06:26:47.766Z,7.00
2023-11-27T06:29:15.926Z,7.10
2023-11-27T06:31:44.283Z,7.10
2023-11-27T06:34:12.339Z,7.10
2023-11-27T06:36:41.856Z,7.10
2023-11-27T06:39:11.488Z,7.00
2023-11-27T06:41:39.678Z,7.10
2023-11-27T06:46:40.226Z,7.10
2023-11-27T06:49:08.735Z,7.10
2023-11-27T06:51:37.090Z,7.10
2023-11-27T06:54:06.645Z,7.10
2023-11-27T06:56:36.876Z,7.10
2023-11-27T06:59:05.007Z,7.10
2023-11-27T07:01:33.529Z,7.10
2023-11-27T07:04:02.254Z,7.10
2023-11-27T07:06:30.859Z,7.20
2023-11-27T07:09:00.316Z,7.10
2023-11-27T07:11:29.899Z,7.10
2023-11-27T07:13:58.042Z,7.20
2023-11-27T07:16:26.229Z,7.20
2023-11-27T07:18:55.432Z,7.20
2023-11-27T07:21:25.384Z,7.20
2023-11-27T07:23:54.680Z,7.30
2023-11-27T07:26:22.959Z,7.30
2023-11-27T07:28:52.512Z,7.30
2023-11-27T07:31:19.942Z,7.30
2023-11-27T07:33:48.147Z,7.30
2023-11-27T07:36:17.646Z,7.30
2023-11-27T07:38:49.468Z,7.30
2023-11-27T07:41:29.459Z,7.30
2023-11-27T07:43:59.489Z,7.40
2023-11-27T07:46:28.956Z,7.40
2023-11-27T07:48:58.096Z,7.40
2023-11-27T07:51:26.374Z,7.40
2023-11-27T07:53:55.164Z,7.40
2023-11-27T07:56:29.092Z,7.50
2023-11-27T07:58:57.694Z,7.40
2023-11-27T08:01:27.188Z,7.50
2023-11-27T08:03:55.415Z,7.50
2023-11-27T08:06:25.866Z,7.50
2023-11-27T08:08:56.956Z,7.50
2023-11-27T08:11:33.277Z,7.50
2023-11-27T08:14:01.437Z,7.60
2023-11-27T08:16:30.226Z,7.60
2023-11-27T08:18:58.340Z,7.60
2023-11-27T08:21:26.752Z,7.60
2023-11-27T08:23:56.880Z,7.60
2023-11-27T08:26:28.574Z,7.60
2023-11-27T08:28:57.127Z,7.60
2023-11-27T08:31:30.098Z,7.70
2023-11-27T08:33:59.631Z,7.60
2023-11-27T08:36:27.964Z,7.70
2023-11-27T08:38:59.610Z,7.70
2023-11-27T08:41:27.785Z,7.70
2023-11-27T08:43:58.795Z,7.70
2023-11-27T08:46:26.832Z,7.80
2023-11-27T08:48:55.552Z,7.80
2023-11-27T08:51:26.599Z,7.80
2023-11-27T08:53:55.724Z,7.80
2023-11-27T08:56:24.006Z,7.80
2023-11-27T08:58:53.509Z,7.80
2023-11-27T09:01:25.089Z,7.90
2023-11-27T09:03:53.991Z,7.90
2023-11-27T09:06:22.346Z,7.90
2023-11-27T09:08:53.289Z,7.90
2023-11-27T09:11:23.622Z,7.90
2023-11-27T09:13:57.058Z,8.00
2023-11-27T09:16:25.624Z,8.00
2023-11-27T09:18:54.019Z,8.00
2023-11-27T09:21:22.294Z,8.00
2023-11-27T09:23:54.721Z,8.10
2023-11-27T09:26:24.256Z,8.10
2023-11-27T09:28:53.118Z,8.10
2023-11-27T09:31:23.538Z,8.10
2023-11-27T09:33:52.227Z,8.10
2023-11-27T09:36:21.077Z,8.10
2023-11-27T09:38:49.570Z,8.10
2023-11-27T09:41:19.301Z,8.10
2023-11-27T09:43:47.586Z,8.10
2023-11-27T09:46:20.865Z,8.10
2023-11-27T09:48:52.567Z,8.20
2023-11-27T09:51:22.250Z,8.20
2023-11-27T09:53:53.113Z,8.20
2023-11-27T09:56:28.652Z,8.20
2023-11-27T09:59:00.801Z,8.30
2023-11-27T10:01:31.050Z,8.30
2023-11-27T10:04:01.518Z,8.30
2023-11-27T10:06:35.288Z,8.30
2023-11-27T10:09:05.525Z,8.20
2023-11-27T10:11:36.257Z,8.30
2023-11-27T10:14:29.927Z,8.30
2023-11-27T10:17:00.023Z,8.30
2023-11-27T10:19:30.305Z,8.30
2023-11-27T10:21:59.128Z,8.40
2023-11-27T10:24:27.372Z,8.40
2023-11-27T10:26:57.498Z,8.40
2023-11-27T10:29:28.807Z,8.40
2023-11-27T10:31:59.498Z,8.40
2023-11-27T10:34:28.358Z,8.40
2023-11-27T10:36:59.138Z,8.50
2023-11-27T10:39:33.519Z,8.40
2023-11-27T10:42:05.270Z,8.40
2023-11-27T10:44:37.279Z,8.50
2023-11-27T10:47:09.763Z,8.50
2023-11-27T10:49:43.094Z,8.50
2023-11-27T10:52:12.485Z,8.50
2023-11-27T10:54:42.871Z,8.50
2023-11-27T10:57:13.537Z,8.50
2023-11-27T10:59:45.514Z,8.60
2023-11-27T11:02:14.495Z,8.60
2023-11-27T11:04:51.555Z,8.60
2023-11-27T11:07:23.543Z,8.60
2023-11-27T11:09:51.928Z,8.60
2023-11-27T11:12:24.732Z,8.60
2023-11-27T11:14:54.216Z,8.60
2023-11-27T11:17:32.392Z,8.70
2023-11-27T11:20:15.194Z,8.70
2023-11-27T11:22:54.040Z,8.70
2023-11-27T11:25:37.494Z,8.70
2023-11-27T11:28:12.972Z,8.80
2023-11-27T11:30:41.180Z,8.90
2023-11-27T11:33:19.350Z,8.90
2023-11-27T11:35:51.689Z,8.90
2023-11-27T11:38:23.487Z,8.90
2023-11-27T11:40:52.811Z,9.00
2023-11-27T11:43:25.461Z,9.00
2023-11-27T11:45:57.100Z,9.10
2023-11-27T11:48:38.771Z,9.10
2023-11-27T11:51:27.156Z,9.10
2023-11-27T11:53:55.173Z,9.10
2023-11-27T11:56:27.237Z,9.10
2023-11-27T11:59:00.399Z,9.10
2023-11-27T12:01:34.087Z,9.10
2023-11-27T12:04:06.788Z,9.00
2023-11-27T12:06:35.007Z,9.00
2023-11-27T12:09:04.826Z,8.90
2023-11-27T12:11:33.050Z,8.90
2023-11-27T12:14:06.312Z,8.90
2023-11-27T12:16:34.873Z,8.90
2023-11-27T12:19:02.995Z,8.90
2023-11-27T12:21:31.252Z,8.80
2023-11-27T12:23:59.349Z,8.80
2023-11-27T12:26:27.504Z,8.80
2023-11-27T12:28:56.366Z,8.70
2023-11-27T12:31:29.227Z,8.70
2023-11-27T12:33:58.510Z,8.60
2023-11-27T12:36:27.169Z,8.60
2023-11-27T12:38:55.774Z,8.60
2023-11-27T12:41:33.441Z,8.60
2023-11-27T12:44:15.348Z,8.60
2023-11-27T12:46:51.770Z,8.60
2023-11-27T12:49:22.066Z,8.60
2023-11-27T12:51:52.707Z,8.60
2023-11-27T12:54:21.164Z,8.60
2023-11-27T12:56:51.044Z,8.60
2023-11-27T12:59:19.274Z,8.60
2023-11-27T13:01:56.889Z,8.60
2023-11-27T13:04:31.419Z,8.50
2023-11-27T13:07:01.041Z,8.60
2023-11-27T13:09:29.122Z,8.60
2023-11-27T13:11:57.205Z,8.60
2023-11-27T13:14:25.695Z,8.60
2023-11-27T13:16:55.485Z,8.50
2023-11-27T13:19:26.201Z,8.50
2023-11-27T13:21:56.823Z,8.50
2023-11-27T13:24:31.108Z,8.50
2023-11-27T13:27:06.626Z,8.50
2023-11-27T13:29:34.887Z,8.50
2023-11-27T13:32:04.622Z,8.50
2023-11-27T13:34:36.809Z,8.50
2023-11-27T13:37:09.346Z,8.50
2023-11-27T13:39:41.685Z,8.50
2023-11-27T13:42:10.741Z,8.50
2023-11-27T13:44:39.087Z,8.50
2023-11-27T13:47:10.749Z,8.50
2023-11-27T13:49:42.488Z,8.50
2023-11-27T13:52:17.439Z,8.40
2023-11-27T13:54:49.886Z,8.40
2023-11-27T13:57:28.608Z,8.40
2023-11-27T13:59:58.789Z,8.40
2023-11-27T14:02:30.218Z,8.40
2023-11-27T14:05:08.113Z,8.30
2023-11-27T14:07:42.120Z,8.30
2023-11-27T14:10:23.662Z,8.30
2023-11-27T14:13:00.624Z,8.30
2023-11-27T14:15:38.988Z,8.20
2023-11-27T14:18:28.581Z,8.20
2023-11-27T14:21:10.867Z,8.10
2023-11-27T14:23:50.655Z,8.20
2023-11-27T14:27:05.305Z,8.20
2023-11-27T14:29:38.783Z,8.10
2023-11-27T14:32:08.996Z,8.10
2023-11-27T14:34:38.619Z,8.10
2023-11-27T14:37:09.118Z,8.10
2023-11-27T14:39:39.534Z,8.10
2023-11-27T14:42:09.398Z,8.00
2023-11-27T14:44:38.078Z,8.00
2023-11-27T14:47:10.542Z,7.90
2023-11-27T14:49:42.952Z,7.90
2023-11-27T14:52:12.291Z,7.90
2023-11-27T14:54:43.396Z,7.90
2023-11-27T14:57:13.213Z,7.90
2023-11-27T14:59:42.209Z,7.90
2023-11-27T15:02:10.762Z,7.80
2023-11-27T15:04:40.755Z,7.70
2023-11-27T15:07:09.945Z,7.80
2023-11-27T15:09:38.402Z,7.80
2023-11-27T15:12:07.341Z,7.80
2023-11-27T15:14:35.459Z,7.70
2023-11-27T15:17:08.507Z,7.70
2023-11-27T15:19:36.789Z,7.70
2023-11-27T15:22:11.276Z,7.70
2023-11-27T15:24:39.489Z,7.70
2023-11-27T15:27:07.579Z,7.60
2023-11-27T15:29:36.744Z,7.60
2023-11-27T15:32:08.455Z,7.60
2023-11-27T15:34:39.379Z,7.60
2023-11-27T15:37:08.746Z,7.60
2023-11-27T15:39:36.805Z,7.50
2023-11-27T15:42:08.724Z,7.50
2023-11-27T15:44:36.871Z,7.50
2023-11-27T15:47:06.811Z,7.50
2023-11-27T15:49:35.945Z,7.50
2023-11-27T15:52:04.277Z,7.50
2023-11-27T15:54:33.804Z,7.50
2023-11-27T15:57:01.776Z,7.50
2023-11-27T15:59:32.076Z,7.40
2023-11-27T16:02:00.169Z,7.40
2023-11-27T16:04:28.428Z,7.40
2023-11-27T16:06:56.694Z,7.30
2023-11-27T16:09:26.291Z,7.40
2023-11-27T16:11:56.039Z,7.30
2023-11-27T16:14:26.105Z,7.30
2023-11-27T16:16:55.965Z,7.30
2023-11-27T16:19:25.423Z,7.30
2023-11-27T16:21:53.588Z,7.20
2023-11-27T16:24:22.128Z,7.30
2023-11-27T16:26:52.567Z,7.30
2023-11-27T16:29:22.018Z,7.20
2023-11-27T16:31:50.300Z,7.30
2023-11-27T16:34:18.623Z,7.20
2023-11-27T16:36:47.701Z,7.30
2023-11-27T16:39:18.696Z,7.20
2023-11-27T16:41:47.116Z,7.20
2023-11-27T16:44:15.401Z,7.20
2023-11-27T16:46:45.021Z,7.20
2023-11-27T16:49:13.766Z,7.20
2023-11-27T16:51:42.807Z,7.20
2023-11-27T16:54:11.948Z,7.10
2023-11-27T16:56:40.921Z,7.10
2023-11-27T16:59:09.090Z,7.20
2023-11-27T17:01:38.124Z,7.10
2023-11-27T17:04:09.131Z,7.10
2023-11-27T17:06:37.604Z,7.00
2023-11-27T17:09:05.914Z,7.00
2023-11-27T17:11:36.215Z,7.00
2023-11-27T17:14:05.422Z,7.10
2023-11-27T17:16:35.457Z,6.90
2023-11-27T17:19:03.668Z,6.90
2023-11-27T17:21:33.076Z,6.80
2023-11-27T17:24:01.144Z,6.90
2023-11-27T17:26:29.301Z,6.80
2023-11-27T17:28:57.707Z,6.70
2023-11-27T17:31:26.317Z,6.80
2023-11-27T17:33:54.309Z,6.70
2023-11-27T17:36:22.505Z,6.60
2023-11-27T17:38:51.879Z,6.60
2023-11-27T17:41:22.221Z,6.50
2023-11-27T17:43:50.299Z,6.50
2023-11-27T17:46:18.364Z,6.50
2023-11-27T17:48:47.775Z,6.50
2023-11-27T17:51:16.570Z,6.40
2023-11-27T17:53:44.675Z,6.30
2023-11-27T17:56:17.529Z,6.30
2023-11-27T17:58:51.941Z,6.30
2023-11-27T18:01:23.605Z,6.30
2023-11-27T18:03:51.909Z,6.20
2023-11-27T18:06:19.923Z,6.20
2023-11-27T18:08:48.164Z,6.30
2023-11-27T18:11:17.652Z,6.20
2023-11-27T18:13:45.828Z,6.20
2023-11-27T18:16:17.542Z,6.20
2023-11-27T18:18:45.888Z,6.10
2023-11-27T18:21:16.861Z,6.10
2023-11-27T18:23:44.988Z,6.00
2023-11-27T18:26:12.991Z,6.00
2023-11-27T18:28:42.981Z,6.00
2023-11-27T18:31:11.801Z,5.90
2023-11-27T18:33:39.967Z,5.80
2023-11-27T18:36:11.411Z,5.90
2023-11-27T18:38:40.305Z,5.80
2023-11-27T18:41:09.840Z,5.70
2023-11-27T18:43:38.570Z,5.70
2023-11-27T18:46:08.708Z,5.60
2023-11-27T18:48:36.823Z,5.60
2023-11-27T18:51:05.342Z,5.60
2023-11-27T18:53:33.790Z,5.60
2023-11-27T18:56:02.885Z,5.60
2023-11-27T18:58:34.097Z,5.60
2023-11-27T19:01:02.207Z,5.60
2023-11-27T19:03:32.152Z,5.60
2023-11-27T19:06:02.153Z,5.60
2023-11-27T19:08:30.563Z,5.50
2023-11-27T19:11:02.561Z,5.50
2023-11-27T19:13:31.437Z,5.50
2023-11-27T19:16:07.270Z,5.40
2023-11-27T19:18:38.114Z,5.40
2023-11-27T19:21:07.384Z,5.40
2023-11-27T19:23:35.932Z,5.40
2023-11-27T19:26:04.753Z,5.40
2023-11-27T19:28:36.527Z,5.30
2023-11-27T19:31:05.058Z,5.30
2023-11-27T19:33:33.612Z,5.30
2023-11-27T19:36:24.421Z,5.20
2023-11-27T19:38:53.316Z,5.20
2023-11-27T19:41:23.124Z,5.20
2023-11-27T19:43:52.822Z,5.30
2023-11-27T19:46:22.283Z,5.20
2023-11-27T19:48:54.885Z,5.10
2023-11-27T19:51:29.455Z,5.10
2023-11-27T19:53:57.925Z,5.10
2023-11-27T19:56:27.404Z,5.20
2023-11-27T19:58:57.092Z,5.20
2023-11-27T20:01:25.534Z,5.10
2023-11-27T20:03:54.874Z,5.20
2023-11-27T20:06:26.929Z,5.10
2023-11-27T20:08:55.675Z,5.10
2023-11-27T20:11:24.612Z,5.10
2023-11-27T20:13:53.577Z,5.00
2023-11-27T20:16:24.642Z,5.10
2023-11-27T20:18:53.038Z,5.00
2023-11-27T20:21:22.584Z,5.00
2023-11-27T20:23:52.996Z,5.10
2023-11-27T20:26:21.972Z,5.00
2023-11-27T20:28:51.142Z,5.10
2023-11-27T20:31:29.940Z,5.10
2023-11-27T20:34:06.135Z,5.10
2023-11-27T20:36:35.117Z,5.10
2023-11-27T20:39:08.630Z,5.10
2023-11-27T20:41:40.086Z,5.00
2023-11-27T20:44:09.943Z,5.00
2023-11-27T20:46:39.299Z,5.00
2023-11-27T20:49:08.942Z,5.00
2023-11-27T20:51:37.490Z,4.90
2023-11-27T20:54:08.303Z,5.00
2023-11-27T20:56:39.480Z,5.00
2023-11-27T20:59:07.862Z,5.00
2023-11-27T21:01:37.157Z,4.90
2023-11-27T21:04:07.507Z,5.00
2023-11-27T21:06:38.098Z,5.00
2023-11-27T21:09:09.645Z,5.00
2023-11-27T21:11:38.238Z,5.00
2023-11-27T21:14:09.886Z,5.00
2023-11-27T21:16:41.093Z,5.00
2023-11-27T21:19:10.685Z,5.00
2023-11-27T21:21:42.239Z,4.90
2023-11-27T21:24:12.099Z,5.00
2023-11-27T21:26:40.815Z,4.90
2023-11-27T21:29:09.095Z,5.00
2023-11-27T21:32:00.390Z,5.00
2023-11-27T21:34:29.653Z,5.00
2023-11-27T21:36:58.275Z,5.00
2023-11-27T21:39:27.943Z,5.10
2023-11-27T21:41:58.013Z,5.10
2023-11-27T21:44:29.363Z,5.10
2023-11-27T21:47:19.752Z,5.10
2023-11-27T21:49:51.286Z,5.30
2023-11-27T21:52:19.937Z,5.20
2023-11-27T21:54:51.877Z,5.10
2023-11-27T21:57:20.108Z,5.10
2023-11-27T21:59:49.661Z,5.10
2023-11-27T22:02:20.495Z,5.00
2023-11-27T22:04:51.742Z,5.10
2023-11-27T22:07:21.337Z,5.10
2023-11-27T22:09:53.332Z,5.10
2023-11-27T22:12:21.946Z,5.00
2023-11-27T22:14:50.225Z,5.00
2023-11-27T22:17:18.654Z,5.00
2023-11-27T22:19:47.418Z,5.00
2023-11-27T22:22:18.072Z,5.00
2023-11-27T22:24:46.513Z,5.00
2023-11-27T22:27:37.329Z,5.00
2023-11-27T22:30:08.353Z,5.00
2023-11-27T22:32:38.204Z,5.00
2023-11-27T22:35:09.814Z,5.00
2023-11-27T22:38:00.826Z,4.90
2023-11-27T22:40:31.251Z,5.00
2023-11-27T22:43:03.982Z,5.00
2023-11-27T22:45:34.437Z,4.90
2023-11-27T22:48:04.205Z,5.00
2023-11-27T22:50:36.270Z,4.90
2023-11-27T22:53:04.940Z,5.00
2023-11-27T22:55:33.539Z,4.90
2023-11-27T22:58:04.015Z,5.00
2023-11-27T23:00:32.531Z,4.90
2023-11-27T23:03:01.376Z,5.00
2023-11-27T23:05:29.919Z,5.00
2023-11-27T23:07:58.360Z,5.10
2023-11-27T23:10:27.358Z,5.00
2023-11-27T23:12:57.231Z,5.00
2023-11-27T23:15:49.809Z,5.00
2023-11-27T23:18:22.805Z,5.00
2023-11-27T23:20:56.619Z,4.90
2023-11-27T23:23:27.116Z,4.90
2023-11-27T23:25:58.055Z,4.90
2023-11-27T23:28:48.615Z,5.00
2023-11-27T23:31:42.290Z,5.00
2023-11-27T23:34:10.990Z,4.90
2023-11-27T23:36:39.240Z,4.90
2023-11-27T23:39:09.829Z,4.80
2023-11-27T23:41:39.897Z,4.80
2023-11-27T23:44:11.984Z,4.80
2023-11-27T23:46:44.410Z,4.80
2023-11-27T23:49:15.216Z,4.80
2023-11-27T23:51:44.243Z,4.80
2023-11-27T23:54:12.382Z,4.80
2023-11-27T23:57:04.119Z,4.80
2023-11-27T23:59:55.135Z,4.80
